createdAt,value
2022-08-29T00:01:31.482Z,50.46
2022-08-29T00:04:00.947Z,50.84
2022-08-29T00:06:29.067Z,51.10
2022-08-29T00:08:57.119Z,51.29
2022-08-29T00:11:25.206Z,51.23
2022-08-29T00:13:53.237Z,51.17
2022-08-29T00:16:21.257Z,51.69
2022-08-29T00:18:49.307Z,51.38
2022-08-29T00:21:18.748Z,51.66
2022-08-29T00:23:46.715Z,51.81
2022-08-29T00:26:14.678Z,51.70
2022-08-29T00:28:42.643Z,51.39
2022-08-29T00:31:10.708Z,51.12
2022-08-29T00:33:39.271Z,51.09
2022-08-29T00:36:07.925Z,50.98
2022-08-29T00:38:37.568Z,51.43
2022-08-29T00:41:06.843Z,51.46
2022-08-29T00:43:36.206Z,51.18
2022-08-29T00:46:11.209Z,51.21
2022-08-29T00:48:39.980Z,51.26
2022-08-29T00:51:09.128Z,51.14
2022-08-29T00:53:40.537Z,51.19
2022-08-29T00:56:08.925Z,51.64
2022-08-29T00:58:38.435Z,51.64
2022-08-29T01:01:06.722Z,51.64
2022-08-29T01:03:35.175Z,51.57
2022-08-29T01:06:03.589Z,51.78
2022-08-29T01:08:31.610Z,51.64
2022-08-29T01:11:18.645Z,51.81
2022-08-29T01:13:47.013Z,52.13
2022-08-29T01:16:16.103Z,52.12
2022-08-29T01:18:45.383Z,51.73
2022-08-29T01:21:16.134Z,52.28
2022-08-29T01:23:46.124Z,52.00
2022-08-29T01:26:15.514Z,52.26
2022-08-29T01:28:45.037Z,52.10
2022-08-29T01:31:14.880Z,52.09
2022-08-29T01:34:03.054Z,51.77
2022-08-29T01:36:35.529Z,51.63
2022-08-29T01:39:03.585Z,51.64
2022-08-29T01:41:33.463Z,51.79
2022-08-29T01:44:01.940Z,51.77
2022-08-29T01:46:31.613Z,51.68
2022-08-29T01:48:59.871Z,52.10
2022-08-29T01:51:28.024Z,51.88
2022-08-29T01:53:56.066Z,51.89
2022-08-29T01:56:25.979Z,51.88
2022-08-29T01:58:55.683Z,51.79
2022-08-29T02:01:25.405Z,51.88
2022-08-29T02:03:53.563Z,52.06
2022-08-29T02:06:21.679Z,52.17
2022-08-29T02:08:49.707Z,52.22
2022-08-29T02:11:17.981Z,51.96
2022-08-29T02:13:47.223Z,52.18
2022-08-29T02:16:17.303Z,51.94
2022-08-29T02:18:45.896Z,52.20
2022-08-29T02:21:14.497Z,52.12
2022-08-29T02:23:42.492Z,52.14
2022-08-29T02:26:10.606Z,52.52
2022-08-29T02:28:38.764Z,52.17
2022-08-29T02:31:07.773Z,52.35
2022-08-29T02:33:37.346Z,52.11
2022-08-29T02:36:06.002Z,52.07
2022-08-29T02:38:34.193Z,52.21
2022-08-29T02:41:02.378Z,52.13
2022-08-29T02:43:30.405Z,52.23
2022-08-29T02:45:58.384Z,52.33
2022-08-29T02:48:26.429Z,52.00
2022-08-29T02:50:56.565Z,52.22
2022-08-29T02:53:25.751Z,52.40
2022-08-29T02:55:53.746Z,52.11
2022-08-29T02:58:22.054Z,52.46
2022-08-29T03:00:50.265Z,52.01
2022-08-29T03:03:19.701Z,52.34
2022-08-29T03:05:47.859Z,52.10
2022-08-29T03:08:18.897Z,52.11
2022-08-29T03:10:46.897Z,52.40
2022-08-29T03:13:14.890Z,52.17
2022-08-29T03:15:42.998Z,52.55
2022-08-29T03:18:11.037Z,52.41
2022-08-29T03:20:39.114Z,52.33
2022-08-29T03:23:07.138Z,52.69
2022-08-29T03:25:37.896Z,52.71
2022-08-29T03:28:05.970Z,52.64
2022-08-29T03:30:34.755Z,52.67
2022-08-29T03:33:06.863Z,52.83
2022-08-29T03:35:36.836Z,52.67
2022-08-29T03:38:04.974Z,52.74
2022-08-29T03:40:33.137Z,52.37
2022-08-29T03:43:03.381Z,52.60
2022-08-29T03:45:31.880Z,52.38
2022-08-29T03:47:59.908Z,52.38
2022-08-29T03:50:30.414Z,52.81
2022-08-29T03:52:59.514Z,52.73
2022-08-29T03:55:27.528Z,52.54
2022-08-29T03:57:56.061Z,52.48
2022-08-29T04:00:25.696Z,52.45
2022-08-29T04:02:55.617Z,52.48
2022-08-29T04:05:23.691Z,52.45
2022-08-29T04:07:52.653Z,52.52
2022-08-29T04:10:21.915Z,52.59
2022-08-29T04:12:54.264Z,53.02
2022-08-29T04:15:23.182Z,52.81
2022-08-29T04:17:54.526Z,52.73
2022-08-29T04:20:25.413Z,52.92
2022-08-29T04:22:54.233Z,52.69
2022-08-29T04:25:22.547Z,52.98
2022-08-29T04:27:50.640Z,52.79
2022-08-29T04:30:19.760Z,52.98
2022-08-29T04:32:47.787Z,52.89
2022-08-29T04:35:17.414Z,53.03
2022-08-29T04:37:45.434Z,53.09
2022-08-29T04:40:15.525Z,52.80
2022-08-29T04:42:43.692Z,52.72
2022-08-29T04:45:13.297Z,52.94
2022-08-29T04:47:41.319Z,53.02
2022-08-29T04:50:10.950Z,52.76
2022-08-29T04:52:40.558Z,52.67
2022-08-29T04:55:09.882Z,52.96
2022-08-29T04:57:38.304Z,52.66
2022-08-29T05:00:07.694Z,52.88
2022-08-29T05:02:35.747Z,53.19
2022-08-29T05:05:09.643Z,52.85
2022-08-29T05:07:38.301Z,52.89
2022-08-29T05:10:09.493Z,52.95
2022-08-29T05:12:37.717Z,53.24
2022-08-29T05:15:06.154Z,52.86
2022-08-29T05:17:34.466Z,53.30
2022-08-29T05:20:03.968Z,53.22
2022-08-29T05:22:31.991Z,53.25
2022-08-29T05:25:00.045Z,52.92
2022-08-29T05:27:29.930Z,52.95
2022-08-29T05:29:58.484Z,52.98
2022-08-29T05:32:26.661Z,52.82
2022-08-29T05:34:55.914Z,53.13
2022-08-29T05:37:24.058Z,52.85
2022-08-29T05:39:52.179Z,53.15
2022-08-29T05:42:22.065Z,52.74
2022-08-29T05:44:52.045Z,52.96
2022-08-29T05:47:20.218Z,53.13
2022-08-29T05:49:48.699Z,53.12
2022-08-29T05:52:18.273Z,53.00
2022-08-29T05:54:46.315Z,52.90
2022-08-29T05:57:19.177Z,52.97
2022-08-29T05:59:47.491Z,52.90
2022-08-29T06:02:17.069Z,53.18
2022-08-29T06:04:45.518Z,52.70
2022-08-29T06:07:13.653Z,53.11
2022-08-29T06:09:42.123Z,52.90
2022-08-29T06:12:10.366Z,52.98
2022-08-29T06:14:38.447Z,53.04
2022-08-29T06:17:09.262Z,52.93
2022-08-29T06:19:39.579Z,52.75
2022-08-29T06:22:09.799Z,52.91
2022-08-29T06:24:38.573Z,52.98
2022-08-29T06:27:06.693Z,53.32
2022-08-29T06:29:42.845Z,52.89
2022-08-29T06:32:11.791Z,53.11
2022-08-29T06:34:41.258Z,53.29
2022-08-29T06:37:09.233Z,52.82
2022-08-29T06:39:37.463Z,53.03
2022-08-29T06:42:05.655Z,52.94
2022-08-29T06:44:33.633Z,53.04
2022-08-29T06:47:01.651Z,53.01
2022-08-29T06:49:29.886Z,52.78
2022-08-29T06:51:59.427Z,52.80
2022-08-29T06:54:28.694Z,52.77
2022-08-29T06:56:56.909Z,53.12
2022-08-29T06:59:24.958Z,52.84
2022-08-29T07:01:53.048Z,53.17
2022-08-29T07:04:21.234Z,53.05
2022-08-29T07:06:49.563Z,53.25
2022-08-29T07:09:18.918Z,53.05
2022-08-29T07:11:46.877Z,52.92
2022-08-29T07:14:15.074Z,52.90
2022-08-29T07:16:43.191Z,53.12
2022-08-29T07:19:11.453Z,52.80
2022-08-29T07:21:39.481Z,52.93
2022-08-29T07:24:07.894Z,52.95
2022-08-29T07:26:39.087Z,53.30
2022-08-29T07:29:08.495Z,53.13
2022-08-29T07:31:36.546Z,53.12
2022-08-29T07:34:04.671Z,53.04
2022-08-29T07:36:34.400Z,53.02
2022-08-29T07:39:02.953Z,52.95
2022-08-29T07:41:31.133Z,52.97
2022-08-29T07:44:00.851Z,52.89
2022-08-29T07:46:29.256Z,53.05
2022-08-29T07:48:57.361Z,52.68
2022-08-29T07:51:25.522Z,52.94
2022-08-29T07:53:53.715Z,53.08
2022-08-29T07:56:24.577Z,52.85
2022-08-29T07:58:53.039Z,53.02
2022-08-29T08:01:22.520Z,52.96
2022-08-29T08:03:51.010Z,53.09
2022-08-29T08:06:19.478Z,53.11
2022-08-29T08:08:47.611Z,52.69
2022-08-29T08:11:15.826Z,53.08
2022-08-29T08:13:44.447Z,53.14
2022-08-29T08:16:14.033Z,53.24
2022-08-29T08:18:43.846Z,53.16
2022-08-29T08:21:11.966Z,53.16
2022-08-29T08:23:40.180Z,52.92
2022-08-29T08:26:09.031Z,52.79
2022-08-29T08:28:37.129Z,52.75
2022-08-29T08:31:06.941Z,52.77
2022-08-29T08:33:35.499Z,52.86
2022-08-29T08:36:06.287Z,53.20
2022-08-29T08:38:34.285Z,53.19
2022-08-29T08:41:05.603Z,52.92
2022-08-29T08:43:42.369Z,53.13
2022-08-29T08:46:10.521Z,52.73
2022-08-29T08:48:39.253Z,52.76
2022-08-29T08:51:10.964Z,52.89
2022-08-29T08:53:39.994Z,53.19
2022-08-29T08:56:12.840Z,52.81
2022-08-29T08:58:46.190Z,52.84
2022-08-29T09:01:20.321Z,53.34
2022-08-29T09:04:31.530Z,52.94
2022-08-29T09:07:10.535Z,53.23
2022-08-29T09:09:44.813Z,53.06
2022-08-29T09:12:17.623Z,53.10
2022-08-29T09:14:54.219Z,52.80
2022-08-29T09:17:25.007Z,52.95
2022-08-29T09:19:53.017Z,53.30
2022-08-29T09:22:26.708Z,53.10
2022-08-29T09:25:02.244Z,52.69
2022-08-29T09:27:32.222Z,52.82
2022-08-29T09:30:05.157Z,52.81
2022-08-29T09:32:33.431Z,52.56
2022-08-29T09:35:09.991Z,52.58
2022-08-29T09:37:39.689Z,52.70
2022-08-29T09:40:11.165Z,52.46
2022-08-29T09:42:41.613Z,52.82
2022-08-29T09:45:18.105Z,52.64
2022-08-29T09:47:46.451Z,52.81
2022-08-29T09:50:20.185Z,52.32
2022-08-29T09:52:54.238Z,52.58
2022-08-29T09:55:26.113Z,52.61
2022-08-29T09:57:55.618Z,52.34
2022-08-29T10:00:29.357Z,52.60
2022-08-29T10:02:58.170Z,52.16
2022-08-29T10:05:35.944Z,52.41
2022-08-29T10:08:06.575Z,52.50
2022-08-29T10:10:36.229Z,52.47
2022-08-29T10:13:08.410Z,52.14
2022-08-29T10:15:50.375Z,52.04
2022-08-29T10:18:24.107Z,52.15
2022-08-29T10:20:56.849Z,52.04
2022-08-29T10:23:28.853Z,52.00
2022-08-29T10:25:56.826Z,52.01
2022-08-29T10:28:27.375Z,51.97
2022-08-29T10:30:57.852Z,51.92
2022-08-29T10:33:54.994Z,52.08
2022-08-29T10:36:26.692Z,51.81
2022-08-29T10:38:58.127Z,52.21
2022-08-29T10:41:30.816Z,52.11
2022-08-29T10:44:04.263Z,52.21
2022-08-29T10:46:46.905Z,52.08
2022-08-29T10:49:20.416Z,51.77
2022-08-29T10:51:50.885Z,51.65
2022-08-29T10:54:23.919Z,51.67
2022-08-29T10:56:51.924Z,51.64
2022-08-29T10:59:21.991Z,51.96
2022-08-29T11:01:53.275Z,52.04
2022-08-29T11:04:23.001Z,52.06
2022-08-29T11:06:54.464Z,51.79
2022-08-29T11:09:25.590Z,51.60
2022-08-29T11:12:01.135Z,51.53
2022-08-29T11:14:32.332Z,51.74
2022-08-29T11:17:03.258Z,52.06
2022-08-29T11:19:33.800Z,51.67
2022-08-29T11:22:03.755Z,51.72
2022-08-29T11:24:35.134Z,51.80
2022-08-29T11:27:07.085Z,51.54
2022-08-29T11:29:42.660Z,51.45
2022-08-29T11:32:13.401Z,51.45
2022-08-29T11:34:48.342Z,51.51
2022-08-29T11:37:40.782Z,51.44
2022-08-29T11:40:12.685Z,51.84
2022-08-29T11:42:50.168Z,51.75
2022-08-29T11:45:25.049Z,51.53
2022-08-29T11:48:17.690Z,51.53
2022-08-29T11:50:45.947Z,51.83
2022-08-29T11:53:16.788Z,51.32
2022-08-29T11:55:46.673Z,51.76
2022-08-29T11:58:43.031Z,51.74
2022-08-29T12:01:20.840Z,51.55
2022-08-29T12:03:48.939Z,51.70
2022-08-29T12:06:40.160Z,51.49
2022-08-29T12:09:18.512Z,51.87
2022-08-29T12:12:18.454Z,51.74
2022-08-29T12:14:47.093Z,51.97
2022-08-29T12:18:00.803Z,51.61
2022-08-29T12:20:41.896Z,51.84
2022-08-29T12:23:19.846Z,51.51
2022-08-29T12:26:03.853Z,52.00
2022-08-29T12:28:49.555Z,51.94
2022-08-29T12:31:31.774Z,51.98
2022-08-29T12:34:08.975Z,51.65
2022-08-29T12:36:48.916Z,51.54
2022-08-29T12:39:27.718Z,51.49
2022-08-29T12:42:16.136Z,51.94
2022-08-29T12:44:46.532Z,51.51
2022-08-29T12:47:15.849Z,51.75
2022-08-29T12:49:48.540Z,51.99
2022-08-29T12:52:23.177Z,51.58
2022-08-29T12:54:56.125Z,51.96
2022-08-29T12:57:33.942Z,51.52
2022-08-29T13:00:05.452Z,51.92
2022-08-29T13:02:34.797Z,51.62
2022-08-29T13:05:03.011Z,51.71
2022-08-29T13:07:31.163Z,51.76
2022-08-29T13:10:00.273Z,51.96
2022-08-29T13:12:29.381Z,51.98
2022-08-29T13:15:00.218Z,52.00
2022-08-29T13:17:31.145Z,51.99
2022-08-29T13:20:36.115Z,51.91
2022-08-29T13:23:25.778Z,51.48
2022-08-29T13:25:56.278Z,51.72
2022-08-29T13:28:29.358Z,51.77
2022-08-29T13:31:31.481Z,51.73
2022-08-29T13:34:15.853Z,51.63
2022-08-29T13:36:47.854Z,51.33
2022-08-29T13:39:26.476Z,51.38
2022-08-29T13:42:20.511Z,51.15
2022-08-29T13:45:10.698Z,51.48
2022-08-29T13:48:00.763Z,51.46
2022-08-29T13:50:30.933Z,51.38
2022-08-29T13:52:58.977Z,51.43
2022-08-29T13:55:27.351Z,51.10
2022-08-29T13:57:55.815Z,51.38
2022-08-29T14:00:32.167Z,51.19
2022-08-29T14:03:22.221Z,51.23
2022-08-29T14:05:56.517Z,50.66
2022-08-29T14:08:24.748Z,50.95
2022-08-29T14:10:52.725Z,50.96
2022-08-29T14:13:20.715Z,51.04
2022-08-29T14:15:48.753Z,50.73
2022-08-29T14:18:17.190Z,50.57
2022-08-29T14:20:45.153Z,50.71
2022-08-29T14:23:14.583Z,50.59
2022-08-29T14:25:43.071Z,50.54
2022-08-29T14:28:13.919Z,50.88
2022-08-29T14:30:49.468Z,50.85
2022-08-29T14:33:20.296Z,50.54
2022-08-29T14:35:48.396Z,50.62
2022-08-29T14:38:18.047Z,50.72
2022-08-29T14:40:46.470Z,50.23
2022-08-29T14:43:14.694Z,50.27
2022-08-29T14:45:42.826Z,50.59
2022-08-29T14:48:10.905Z,50.76
2022-08-29T14:50:39.076Z,50.41
2022-08-29T14:53:07.308Z,50.31
2022-08-29T14:55:36.807Z,50.08
2022-08-29T14:58:04.995Z,49.87
2022-08-29T15:00:34.078Z,50.11
2022-08-29T15:03:02.171Z,49.81
2022-08-29T15:05:30.879Z,49.70
2022-08-29T15:08:01.886Z,49.86
2022-08-29T15:10:34.086Z,50.10
2022-08-29T15:13:03.618Z,49.46
2022-08-29T15:15:31.811Z,49.89
2022-08-29T15:18:00.430Z,49.46
2022-08-29T15:20:36.187Z,49.15
2022-08-29T15:23:05.661Z,49.27
2022-08-29T15:25:33.882Z,49.12
2022-08-29T15:28:03.760Z,49.15
2022-08-29T15:30:31.890Z,49.16
2022-08-29T15:32:59.964Z,49.21
2022-08-29T15:35:28.116Z,49.62
2022-08-29T15:37:56.229Z,49.35
2022-08-29T15:40:24.324Z,49.03
2022-08-29T15:42:52.378Z,49.46
2022-08-29T15:45:22.564Z,49.43
2022-08-29T15:47:51.370Z,49.39
2022-08-29T15:50:22.813Z,49.19
2022-08-29T15:52:51.103Z,48.97
2022-08-29T15:55:20.200Z,49.37
2022-08-29T15:57:52.503Z,49.47
2022-08-29T16:00:29.581Z,49.01
2022-08-29T16:03:03.313Z,49.02
2022-08-29T16:05:32.234Z,49.55
2022-08-29T16:08:00.830Z,49.26
2022-08-29T16:10:28.845Z,49.45
2022-08-29T16:12:57.035Z,49.14
2022-08-29T16:15:27.820Z,49.10
2022-08-29T16:17:56.017Z,49.10
2022-08-29T16:20:24.030Z,49.27
2022-08-29T16:22:52.225Z,49.39
2022-08-29T16:25:23.463Z,49.19
2022-08-29T16:27:53.282Z,49.29
2022-08-29T16:30:21.520Z,49.57
2022-08-29T16:32:51.721Z,49.39
2022-08-29T16:35:20.494Z,49.67
2022-08-29T16:38:02.264Z,49.61
2022-08-29T16:40:31.562Z,49.71
2022-08-29T16:42:59.964Z,49.31
2022-08-29T16:45:28.026Z,49.61
2022-08-29T16:47:57.838Z,49.73
2022-08-29T16:50:26.715Z,49.73
2022-08-29T16:52:54.760Z,49.63
2022-08-29T16:55:23.076Z,49.52
2022-08-29T16:58:04.949Z,50.08
2022-08-29T17:00:33.016Z,49.54
2022-08-29T17:03:02.461Z,50.00
2022-08-29T17:05:30.822Z,49.75
2022-08-29T17:07:57.676Z,50.17
2022-08-29T17:10:24.504Z,50.18
2022-08-29T17:12:51.444Z,49.91
2022-08-29T17:15:18.458Z,50.25
2022-08-29T17:17:47.398Z,50.20
2022-08-29T17:20:16.936Z,50.26
2022-08-29T17:22:44.957Z,50.32
2022-08-29T17:25:13.213Z,50.09
2022-08-29T17:27:55.459Z,50.42
2022-08-29T17:30:30.888Z,49.94
2022-08-29T17:32:58.976Z,50.07
2022-08-29T17:35:28.460Z,50.30
2022-08-29T17:37:56.575Z,50.29
2022-08-29T17:40:26.521Z,50.14
2022-08-29T17:42:56.308Z,50.14
2022-08-29T17:45:27.969Z,50.01
2022-08-29T17:47:56.635Z,50.33
2022-08-29T17:50:24.784Z,49.92
2022-08-29T17:52:54.306Z,50.17
2022-08-29T17:55:22.403Z,50.11
2022-08-29T17:57:50.523Z,50.29
2022-08-29T18:00:19.308Z,50.00
2022-08-29T18:02:47.409Z,49.98
2022-08-29T18:05:15.796Z,49.97
2022-08-29T18:07:43.927Z,50.30
2022-08-29T18:10:14.910Z,50.33
2022-08-29T18:12:42.949Z,50.35
2022-08-29T18:15:12.504Z,49.92
2022-08-29T18:17:40.683Z,50.33
2022-08-29T18:20:10.776Z,50.31
2022-08-29T18:22:39.703Z,50.15
2022-08-29T18:25:08.508Z,50.46
2022-08-29T18:27:43.101Z,50.27
2022-08-29T18:30:13.611Z,50.07
2022-08-29T18:32:42.267Z,50.35
2022-08-29T18:35:10.888Z,50.23
2022-08-29T18:37:39.612Z,50.32
2022-08-29T18:40:09.369Z,50.41
2022-08-29T18:42:41.415Z,50.38
2022-08-29T18:45:10.475Z,50.13
2022-08-29T18:47:38.503Z,49.95
2022-08-29T18:50:25.322Z,49.92
2022-08-29T18:52:53.518Z,49.92
2022-08-29T18:55:23.476Z,50.19
2022-08-29T18:57:53.133Z,50.30
2022-08-29T19:00:21.608Z,50.15
2022-08-29T19:02:50.133Z,49.89
2022-08-29T19:05:18.947Z,49.79
2022-08-29T19:07:47.084Z,50.13
2022-08-29T19:10:15.218Z,50.27
2022-08-29T19:12:44.310Z,50.31
2022-08-29T19:15:16.869Z,49.99
2022-08-29T19:17:44.960Z,50.01
2022-08-29T19:20:31.315Z,49.63
2022-08-29T19:22:59.452Z,49.75
2022-08-29T19:25:28.630Z,49.78
2022-08-29T19:27:56.756Z,49.89
2022-08-29T19:30:26.350Z,49.88
2022-08-29T19:32:55.193Z,49.76
2022-08-29T19:35:23.515Z,50.06
2022-08-29T19:37:52.003Z,49.81
2022-08-29T19:40:20.750Z,49.79
2022-08-29T19:42:48.945Z,50.21
2022-08-29T19:45:17.500Z,50.23
2022-08-29T19:47:47.283Z,50.08
2022-08-29T19:50:17.089Z,49.86
2022-08-29T19:52:48.027Z,50.00
2022-08-29T19:55:17.814Z,50.09
2022-08-29T19:57:46.608Z,49.86
2022-08-29T20:00:16.145Z,49.90
2022-08-29T20:02:44.228Z,49.82
2022-08-29T20:05:15.603Z,49.68
2022-08-29T20:07:44.854Z,50.24
2022-08-29T20:10:15.020Z,49.77
2022-08-29T20:12:44.277Z,50.00
2022-08-29T20:15:14.135Z,50.12
2022-08-29T20:17:43.156Z,50.14
2022-08-29T20:20:13.482Z,49.86
2022-08-29T20:22:43.183Z,49.97
2022-08-29T20:25:13.146Z,50.26
2022-08-29T20:27:41.316Z,50.06
2022-08-29T20:30:12.866Z,49.97
2022-08-29T20:32:40.928Z,50.05
2022-08-29T20:35:09.391Z,50.08
2022-08-29T20:37:38.114Z,49.90
2022-08-29T20:40:12.058Z,50.28
2022-08-29T20:42:40.160Z,50.01
2022-08-29T20:45:09.474Z,50.40
2022-08-29T20:47:37.603Z,50.32
2022-08-29T20:50:06.446Z,50.49
2022-08-29T20:52:34.574Z,50.03
2022-08-29T20:55:05.037Z,50.46
2022-08-29T20:57:39.230Z,50.40
2022-08-29T21:00:09.112Z,50.40
2022-08-29T21:02:54.459Z,50.50
2022-08-29T21:05:42.544Z,50.55
2022-08-29T21:08:11.403Z,50.10
2022-08-29T21:10:39.590Z,50.41
2022-08-29T21:13:09.455Z,50.29
2022-08-29T21:15:37.868Z,50.42
2022-08-29T21:18:06.571Z,50.59
2022-08-29T21:20:37.524Z,50.55
2022-08-29T21:23:13.071Z,50.63
2022-08-29T21:25:41.376Z,50.27
2022-08-29T21:28:11.013Z,50.46
2022-08-29T21:30:45.364Z,50.25
2022-08-29T21:33:13.752Z,50.39
2022-08-29T21:35:42.051Z,50.18
2022-08-29T21:38:10.414Z,50.26
2022-08-29T21:40:44.197Z,50.63
2022-08-29T21:43:20.840Z,50.18
2022-08-29T21:45:49.020Z,50.70
2022-08-29T21:48:17.086Z,50.63
2022-08-29T21:50:45.170Z,50.50
2022-08-29T21:53:14.198Z,50.42
2022-08-29T21:55:42.481Z,50.26
2022-08-29T21:58:10.559Z,50.63
2022-08-29T22:00:42.016Z,50.22
2022-08-29T22:03:12.192Z,50.34
2022-08-29T22:05:43.905Z,50.56
2022-08-29T22:08:13.933Z,50.53
2022-08-29T22:10:45.209Z,50.20
2022-08-29T22:13:13.263Z,50.34
2022-08-29T22:16:00.146Z,50.54
2022-08-29T22:18:28.301Z,50.59
2022-08-29T22:21:00.449Z,50.24
2022-08-29T22:23:29.668Z,50.26
2022-08-29T22:25:58.937Z,50.32
2022-08-29T22:28:27.265Z,50.21
2022-08-29T22:30:56.804Z,50.46
2022-08-29T22:33:24.821Z,50.71
2022-08-29T22:35:53.013Z,50.25
2022-08-29T22:38:21.082Z,50.31
2022-08-29T22:40:49.249Z,50.58
2022-08-29T22:43:17.402Z,50.70
2022-08-29T22:45:45.857Z,50.77
2022-08-29T22:48:16.407Z,50.62
2022-08-29T22:50:54.036Z,50.54
2022-08-29T22:53:26.723Z,50.50
2022-08-29T22:55:54.837Z,50.16
2022-08-29T22:58:23.298Z,50.53
2022-08-29T23:00:51.419Z,50.15
2022-08-29T23:03:20.902Z,50.21
2022-08-29T23:05:49.031Z,50.43
2022-08-29T23:08:17.839Z,50.59
2022-08-29T23:10:46.178Z,50.61
2022-08-29T23:13:17.781Z,50.12
2022-08-29T23:15:45.964Z,50.19
2022-08-29T23:18:14.209Z,50.39
2022-08-29T23:20:45.674Z,50.43
2022-08-29T23:23:15.077Z,50.32
2022-08-29T23:25:43.303Z,50.50
2022-08-29T23:28:11.311Z,50.37
2022-08-29T23:30:39.320Z,50.06
2022-08-29T23:33:07.374Z,50.02
2022-08-29T23:35:37.093Z,50.54
2022-08-29T23:38:07.739Z,50.23
2022-08-29T23:40:36.226Z,50.26
2022-08-29T23:43:04.771Z,50.40
2022-08-29T23:45:33.470Z,50.38
2022-08-29T23:48:01.481Z,50.26
2022-08-29T23:50:29.583Z,50.57
2022-08-29T23:52:57.897Z,50.14
2022-08-29T23:55:27.397Z,50.56
2022-08-29T23:57:55.475Z,50.63
